sensor_id;sensor_type;location;lat;lon;timestamp;P1;durP1;ratioP1;P2;durP2;ratioP2
22060;SDS011;11194;48.092;-1.382;2023-08-30T00:01:38;10.45;;;5.82;;
22060;SDS011;11194;48.092;-1.382;2023-08-30T00:04:04;8.80;;;5.32;;
22060;SDS011;11194;48.092;-1.382;2023-08-30T00:06:30;11.65;;;6.22;;
22060;SDS011;11194;48.092;-1.382;2023-08-30T00:08:57;12.60;;;5.72;;
22060;SDS011;11194;48.092;-1.382;2023-08-30T00:11:23;8.02;;;5.65;;
22060;SDS011;11194;48.092;-1.382;2023-08-30T00:13:49;10.38;;;6.30;;
22060;SDS011;11194;48.092;-1.382;2023-08-30T00:16:15;8.45;;;6.22;;
22060;SDS011;11194;48.092;-1.382;2023-08-30T00:18:42;9.38;;;6.22;;
22060;SDS011;11194;48.092;-1.382;2023-08-30T00:21:09;9.80;;;5.55;;
22060;SDS011;11194;48.092;-1.382;2023-08-30T00:23:35;9.93;;;5.90;;
22060;SDS011;11194;48.092;-1.382;2023-08-30T00:26:01;14.60;;;6.45;;
22060;SDS011;11194;48.092;-1.382;2023-08-30T00:28:27;13.38;;;6.25;;
22060;SDS011;11194;48.092;-1.382;2023-08-30T00:30:54;9.00;;;6.20;;
22060;SDS011;11194;48.092;-1.382;2023-08-30T00:33:20;11.75;;;6.00;;
22060;SDS011;11194;48.092;-1.382;2023-08-30T00:35:46;10.90;;;6.13;;
22060;SDS011;11194;48.092;-1.382;2023-08-30T00:38:12;10.75;;;6.40;;
22060;SDS011;11194;48.092;-1.382;2023-08-30T00:40:39;12.52;;;6.70;;
22060;SDS011;11194;48.092;-1.382;2023-08-30T00:43:05;10.52;;;6.38;;
22060;SDS011;11194;48.092;-1.382;2023-08-30T00:45:32;8.15;;;6.05;;
22060;SDS011;11194;48.092;-1.382;2023-08-30T00:47:58;11.07;;;6.60;;
22060;SDS011;11194;48.092;-1.382;2023-08-30T00:50:24;10.32;;;6.95;;
22060;SDS011;11194;48.092;-1.382;2023-08-30T00:52:50;9.05;;;6.13;;
22060;SDS011;11194;48.092;-1.382;2023-08-30T00:55:16;10.15;;;6.60;;
22060;SDS011;11194;48.092;-1.382;2023-08-30T00:57:42;11.93;;;7.00;;
22060;SDS011;11194;48.092;-1.382;2023-08-30T01:00:09;10.02;;;5.80;;
22060;SDS011;11194;48.092;-1.382;2023-08-30T01:02:35;10.93;;;6.15;;
22060;SDS011;11194;48.092;-1.382;2023-08-30T01:05:02;14.60;;;6.90;;
22060;SDS011;11194;48.092;-1.382;2023-08-30T01:07:28;10.52;;;6.50;;
22060;SDS011;11194;48.092;-1.382;2023-08-30T01:09:54;8.82;;;6.32;;
22060;SDS011;11194;48.092;-1.382;2023-08-30T01:12:22;10.15;;;5.80;;
22060;SDS011;11194;48.092;-1.382;2023-08-30T01:14:52;11.85;;;6.03;;
22060;SDS011;11194;48.092;-1.382;2023-08-30T01:17:18;10.77;;;6.28;;
22060;SDS011;11194;48.092;-1.382;2023-08-30T01:20:01;11.13;;;6.30;;
22060;SDS011;11194;48.092;-1.382;2023-08-30T01:25:15;13.57;;;7.15;;
22060;SDS011;11194;48.092;-1.382;2023-08-30T01:27:42;12.25;;;6.43;;
22060;SDS011;11194;48.092;-1.382;2023-08-30T01:30:09;11.45;;;6.30;;
22060;SDS011;11194;48.092;-1.382;2023-08-30T01:32:36;11.13;;;6.60;;
22060;SDS011;11194;48.092;-1.382;2023-08-30T01:35:03;8.90;;;6.47;;
22060;SDS011;11194;48.092;-1.382;2023-08-30T01:37:29;11.60;;;6.32;;
22060;SDS011;11194;48.092;-1.382;2023-08-30T01:39:56;14.20;;;6.45;;
22060;SDS011;11194;48.092;-1.382;2023-08-30T01:42:23;9.98;;;6.65;;
22060;SDS011;11194;48.092;-1.382;2023-08-30T01:44:51;11.27;;;7.03;;
22060;SDS011;11194;48.092;-1.382;2023-08-30T01:47:20;11.73;;;6.78;;
22060;SDS011;11194;48.092;-1.382;2023-08-30T01:49:46;11.43;;;7.15;;
22060;SDS011;11194;48.092;-1.382;2023-08-30T01:52:13;11.77;;;7.10;;
22060;SDS011;11194;48.092;-1.382;2023-08-30T01:54:40;12.57;;;7.68;;
22060;SDS011;11194;48.092;-1.382;2023-08-30T01:57:06;13.40;;;8.20;;
22060;SDS011;11194;48.092;-1.382;2023-08-30T01:59:33;13.23;;;8.50;;
22060;SDS011;11194;48.092;-1.382;2023-08-30T02:01:59;11.82;;;9.10;;
22060;SDS011;11194;48.092;-1.382;2023-08-30T02:04:25;12.27;;;8.27;;
22060;SDS011;11194;48.092;-1.382;2023-08-30T02:09:18;12.15;;;7.85;;
22060;SDS011;11194;48.092;-1.382;2023-08-30T02:11:46;11.80;;;9.80;;
22060;SDS011;11194;48.092;-1.382;2023-08-30T02:14:14;13.48;;;11.23;;
22060;SDS011;11194;48.092;-1.382;2023-08-30T02:16:42;12.82;;;11.15;;
22060;SDS011;11194;48.092;-1.382;2023-08-30T02:19:09;15.15;;;10.60;;
22060;SDS011;11194;48.092;-1.382;2023-08-30T02:21:36;10.13;;;7.63;;
22060;SDS011;11194;48.092;-1.382;2023-08-30T02:24:02;9.55;;;7.93;;
22060;SDS011;11194;48.092;-1.382;2023-08-30T02:26:29;8.50;;;7.30;;
22060;SDS011;11194;48.092;-1.382;2023-08-30T02:28:55;7.78;;;6.65;;
22060;SDS011;11194;48.092;-1.382;2023-08-30T02:31:21;7.00;;;6.25;;
22060;SDS011;11194;48.092;-1.382;2023-08-30T02:33:47;8.55;;;6.05;;
22060;SDS011;11194;48.092;-1.382;2023-08-30T02:36:13;6.53;;;5.32;;
22060;SDS011;11194;48.092;-1.382;2023-08-30T02:38:39;7.38;;;5.15;;
22060;SDS011;11194;48.092;-1.382;2023-08-30T02:41:05;5.57;;;4.68;;
22060;SDS011;11194;48.092;-1.382;2023-08-30T02:43:31;4.90;;;4.05;;
22060;SDS011;11194;48.092;-1.382;2023-08-30T02:45:58;5.93;;;4.30;;
22060;SDS011;11194;48.092;-1.382;2023-08-30T02:48:24;6.00;;;3.83;;
22060;SDS011;11194;48.092;-1.382;2023-08-30T02:50:50;4.15;;;3.75;;
22060;SDS011;11194;48.092;-1.382;2023-08-30T02:53:16;3.80;;;3.50;;
22060;SDS011;11194;48.092;-1.382;2023-08-30T02:55:42;4.85;;;3.40;;
22060;SDS011;11194;48.092;-1.382;2023-08-30T02:58:08;7.63;;;3.80;;
22060;SDS011;11194;48.092;-1.382;2023-08-30T03:00:34;3.88;;;3.33;;
22060;SDS011;11194;48.092;-1.382;2023-08-30T03:03:00;4.35;;;3.63;;
22060;SDS011;11194;48.092;-1.382;2023-08-30T03:05:27;6.72;;;3.33;;
22060;SDS011;11194;48.092;-1.382;2023-08-30T03:07:53;3.67;;;3.20;;
22060;SDS011;11194;48.092;-1.382;2023-08-30T03:10:19;4.50;;;3.30;;
22060;SDS011;11194;48.092;-1.382;2023-08-30T03:12:45;6.32;;;3.85;;
22060;SDS011;11194;48.092;-1.382;2023-08-30T03:15:11;5.90;;;3.38;;
22060;SDS011;11194;48.092;-1.382;2023-08-30T03:17:37;5.28;;;3.72;;
22060;SDS011;11194;48.092;-1.382;2023-08-30T03:20:03;5.15;;;4.15;;
22060;SDS011;11194;48.092;-1.382;2023-08-30T03:22:33;5.35;;;3.78;;
22060;SDS011;11194;48.092;-1.382;2023-08-30T03:24:59;4.15;;;3.85;;
22060;SDS011;11194;48.092;-1.382;2023-08-30T03:27:28;5.53;;;4.25;;
22060;SDS011;11194;48.092;-1.382;2023-08-30T03:29:55;4.22;;;3.88;;
22060;SDS011;11194;48.092;-1.382;2023-08-30T03:32:21;7.35;;;4.75;;
22060;SDS011;11194;48.092;-1.382;2023-08-30T03:34:47;6.78;;;5.10;;
22060;SDS011;11194;48.092;-1.382;2023-08-30T03:37:14;7.18;;;5.03;;
22060;SDS011;11194;48.092;-1.382;2023-08-30T03:39:40;6.63;;;5.00;;
22060;SDS011;11194;48.092;-1.382;2023-08-30T03:42:06;5.30;;;4.80;;
22060;SDS011;11194;48.092;-1.382;2023-08-30T03:44:32;6.68;;;5.22;;
22060;SDS011;11194;48.092;-1.382;2023-08-30T03:46:59;5.68;;;5.13;;
22060;SDS011;11194;48.092;-1.382;2023-08-30T03:49:25;5.35;;;4.93;;
22060;SDS011;11194;48.092;-1.382;2023-08-30T03:51:51;7.18;;;4.80;;
22060;SDS011;11194;48.092;-1.382;2023-08-30T03:54:17;5.38;;;4.97;;
22060;SDS011;11194;48.092;-1.382;2023-08-30T03:56:43;6.57;;;5.25;;
22060;SDS011;11194;48.092;-1.382;2023-08-30T03:59:10;7.00;;;4.70;;
22060;SDS011;11194;48.092;-1.382;2023-08-30T04:01:36;5.63;;;4.85;;
22060;SDS011;11194;48.092;-1.382;2023-08-30T04:04:02;4.57;;;4.18;;
22060;SDS011;11194;48.092;-1.382;2023-08-30T04:06:28;5.22;;;3.92;;
22060;SDS011;11194;48.092;-1.382;2023-08-30T04:08:54;5.45;;;4.70;;
22060;SDS011;11194;48.092;-1.382;2023-08-30T04:11:20;5.28;;;4.63;;
22060;SDS011;11194;48.092;-1.382;2023-08-30T04:13:46;4.50;;;4.15;;
22060;SDS011;11194;48.092;-1.382;2023-08-30T04:16:12;7.28;;;4.93;;
22060;SDS011;11194;48.092;-1.382;2023-08-30T04:18:38;4.95;;;4.18;;
22060;SDS011;11194;48.092;-1.382;2023-08-30T04:21:04;5.88;;;3.92;;
22060;SDS011;11194;48.092;-1.382;2023-08-30T04:23:32;4.18;;;3.60;;
22060;SDS011;11194;48.092;-1.382;2023-08-30T04:25:58;7.78;;;4.60;;
22060;SDS011;11194;48.092;-1.382;2023-08-30T04:28:24;5.82;;;4.07;;
22060;SDS011;11194;48.092;-1.382;2023-08-30T04:30:55;7.38;;;4.45;;
22060;SDS011;11194;48.092;-1.382;2023-08-30T04:33:22;8.23;;;4.20;;
22060;SDS011;11194;48.092;-1.382;2023-08-30T04:35:51;7.10;;;4.05;;
22060;SDS011;11194;48.092;-1.382;2023-08-30T04:38:18;4.63;;;3.80;;
22060;SDS011;11194;48.092;-1.382;2023-08-30T04:40:45;4.55;;;3.97;;
22060;SDS011;11194;48.092;-1.382;2023-08-30T04:43:11;5.70;;;4.00;;
22060;SDS011;11194;48.092;-1.382;2023-08-30T04:45:37;6.50;;;3.30;;
22060;SDS011;11194;48.092;-1.382;2023-08-30T04:48:03;5.82;;;3.75;;
22060;SDS011;11194;48.092;-1.382;2023-08-30T04:50:29;8.93;;;3.38;;
22060;SDS011;11194;48.092;-1.382;2023-08-30T04:52:56;4.80;;;3.55;;
22060;SDS011;11194;48.092;-1.382;2023-08-30T04:55:25;8.32;;;3.50;;
22060;SDS011;11194;48.092;-1.382;2023-08-30T04:57:51;3.45;;;3.10;;
22060;SDS011;11194;48.092;-1.382;2023-08-30T05:00:19;5.90;;;3.47;;
22060;SDS011;11194;48.092;-1.382;2023-08-30T05:02:45;7.72;;;3.83;;
22060;SDS011;11194;48.092;-1.382;2023-08-30T05:05:12;8.02;;;3.67;;
22060;SDS011;11194;48.092;-1.382;2023-08-30T05:07:40;6.13;;;3.85;;
22060;SDS011;11194;48.092;-1.382;2023-08-30T05:10:06;8.55;;;3.90;;
22060;SDS011;11194;48.092;-1.382;2023-08-30T05:12:33;7.18;;;3.88;;
22060;SDS011;11194;48.092;-1.382;2023-08-30T05:15:00;5.05;;;3.75;;
22060;SDS011;11194;48.092;-1.382;2023-08-30T05:17:26;4.45;;;3.85;;
22060;SDS011;11194;48.092;-1.382;2023-08-30T05:19:53;4.88;;;3.97;;
22060;SDS011;11194;48.092;-1.382;2023-08-30T05:22:20;6.45;;;4.18;;
22060;SDS011;11194;48.092;-1.382;2023-08-30T05:24:46;5.38;;;4.57;;
22060;SDS011;11194;48.092;-1.382;2023-08-30T05:27:12;4.72;;;4.22;;
22060;SDS011;11194;48.092;-1.382;2023-08-30T05:29:39;6.38;;;4.20;;
22060;SDS011;11194;48.092;-1.382;2023-08-30T05:32:05;7.90;;;4.30;;
22060;SDS011;11194;48.092;-1.382;2023-08-30T05:34:32;8.95;;;4.72;;
22060;SDS011;11194;48.092;-1.382;2023-08-30T05:36:58;6.65;;;4.70;;
22060;SDS011;11194;48.092;-1.382;2023-08-30T05:39:24;5.40;;;4.68;;
22060;SDS011;11194;48.092;-1.382;2023-08-30T05:41:50;6.68;;;4.57;;
22060;SDS011;11194;48.092;-1.382;2023-08-30T05:44:16;7.72;;;4.53;;
22060;SDS011;11194;48.092;-1.382;2023-08-30T05:46:42;5.63;;;3.97;;
22060;SDS011;11194;48.092;-1.382;2023-08-30T05:49:08;6.80;;;4.32;;
22060;SDS011;11194;48.092;-1.382;2023-08-30T05:51:34;9.68;;;4.45;;
22060;SDS011;11194;48.092;-1.382;2023-08-30T05:54:00;4.85;;;4.20;;
22060;SDS011;11194;48.092;-1.382;2023-08-30T05:56:27;5.85;;;4.63;;
22060;SDS011;11194;48.092;-1.382;2023-08-30T05:58:53;9.63;;;4.60;;
22060;SDS011;11194;48.092;-1.382;2023-08-30T06:01:19;6.15;;;4.60;;
22060;SDS011;11194;48.092;-1.382;2023-08-30T06:03:45;7.68;;;5.35;;
22060;SDS011;11194;48.092;-1.382;2023-08-30T06:06:12;9.50;;;5.00;;
22060;SDS011;11194;48.092;-1.382;2023-08-30T06:08:38;5.82;;;4.55;;
22060;SDS011;11194;48.092;-1.382;2023-08-30T06:11:04;9.38;;;4.95;;
22060;SDS011;11194;48.092;-1.382;2023-08-30T06:13:30;7.30;;;4.40;;
22060;SDS011;11194;48.092;-1.382;2023-08-30T06:15:57;7.78;;;5.05;;
22060;SDS011;11194;48.092;-1.382;2023-08-30T06:18:23;8.90;;;4.13;;
22060;SDS011;11194;48.092;-1.382;2023-08-30T06:20:49;5.28;;;3.60;;
22060;SDS011;11194;48.092;-1.382;2023-08-30T06:23:18;8.25;;;3.78;;
22060;SDS011;11194;48.092;-1.382;2023-08-30T06:25:45;5.68;;;3.50;;
22060;SDS011;11194;48.092;-1.382;2023-08-30T06:28:11;7.72;;;3.60;;
22060;SDS011;11194;48.092;-1.382;2023-08-30T06:30:37;5.65;;;3.25;;
22060;SDS011;11194;48.092;-1.382;2023-08-30T06:33:03;5.35;;;3.05;;
22060;SDS011;11194;48.092;-1.382;2023-08-30T06:35:30;7.80;;;3.58;;
22060;SDS011;11194;48.092;-1.382;2023-08-30T06:37:56;8.90;;;3.80;;
22060;SDS011;11194;48.092;-1.382;2023-08-30T06:40:22;6.32;;;3.45;;
22060;SDS011;11194;48.092;-1.382;2023-08-30T06:42:50;5.00;;;3.40;;
22060;SDS011;11194;48.092;-1.382;2023-08-30T06:45:16;5.68;;;3.38;;
22060;SDS011;11194;48.092;-1.382;2023-08-30T06:47:42;5.28;;;3.35;;
22060;SDS011;11194;48.092;-1.382;2023-08-30T06:50:08;5.15;;;3.38;;
22060;SDS011;11194;48.092;-1.382;2023-08-30T06:52:35;5.78;;;3.20;;
22060;SDS011;11194;48.092;-1.382;2023-08-30T06:55:01;5.03;;;3.47;;
22060;SDS011;11194;48.092;-1.382;2023-08-30T06:57:27;4.50;;;3.13;;
22060;SDS011;11194;48.092;-1.382;2023-08-30T06:59:53;6.70;;;3.35;;
22060;SDS011;11194;48.092;-1.382;2023-08-30T07:02:19;5.90;;;3.45;;
22060;SDS011;11194;48.092;-1.382;2023-08-30T07:04:46;4.90;;;3.10;;
22060;SDS011;11194;48.092;-1.382;2023-08-30T07:07:12;4.85;;;3.15;;
22060;SDS011;11194;48.092;-1.382;2023-08-30T07:09:39;7.05;;;3.60;;
22060;SDS011;11194;48.092;-1.382;2023-08-30T07:12:06;6.65;;;3.30;;
22060;SDS011;11194;48.092;-1.382;2023-08-30T07:14:33;6.22;;;3.40;;
22060;SDS011;11194;48.092;-1.382;2023-08-30T07:16:59;6.05;;;3.38;;
22060;SDS011;11194;48.092;-1.382;2023-08-30T07:19:25;8.80;;;2.97;;
22060;SDS011;11194;48.092;-1.382;2023-08-30T07:21:51;5.53;;;3.28;;
22060;SDS011;11194;48.092;-1.382;2023-08-30T07:24:17;6.32;;;3.83;;
22060;SDS011;11194;48.092;-1.382;2023-08-30T07:26:43;6.75;;;4.03;;
22060;SDS011;11194;48.092;-1.382;2023-08-30T07:29:09;6.90;;;4.35;;
22060;SDS011;11194;48.092;-1.382;2023-08-30T07:31:35;7.35;;;3.90;;
22060;SDS011;11194;48.092;-1.382;2023-08-30T07:34:01;6.47;;;3.63;;
22060;SDS011;11194;48.092;-1.382;2023-08-30T07:36:27;5.90;;;3.15;;
22060;SDS011;11194;48.092;-1.382;2023-08-30T07:38:54;3.88;;;2.85;;
22060;SDS011;11194;48.092;-1.382;2023-08-30T07:41:20;5.97;;;3.05;;
22060;SDS011;11194;48.092;-1.382;2023-08-30T07:43:46;6.35;;;3.33;;
22060;SDS011;11194;48.092;-1.382;2023-08-30T07:46:12;6.97;;;2.72;;
22060;SDS011;11194;48.092;-1.382;2023-08-30T07:48:38;3.75;;;2.42;;
22060;SDS011;11194;48.092;-1.382;2023-08-30T07:51:04;6.10;;;2.40;;
22060;SDS011;11194;48.092;-1.382;2023-08-30T07:53:30;5.75;;;2.08;;
22060;SDS011;11194;48.092;-1.382;2023-08-30T07:55:57;4.93;;;2.30;;
22060;SDS011;11194;48.092;-1.382;2023-08-30T07:58:23;3.65;;;1.85;;
22060;SDS011;11194;48.092;-1.382;2023-08-30T08:00:52;6.10;;;2.40;;
22060;SDS011;11194;48.092;-1.382;2023-08-30T08:03:21;4.45;;;2.13;;
22060;SDS011;11194;48.092;-1.382;2023-08-30T08:05:47;3.72;;;2.17;;
22060;SDS011;11194;48.092;-1.382;2023-08-30T08:08:14;4.88;;;2.00;;
22060;SDS011;11194;48.092;-1.382;2023-08-30T08:10:41;6.85;;;2.72;;
22060;SDS011;11194;48.092;-1.382;2023-08-30T08:13:07;4.28;;;2.30;;
22060;SDS011;11194;48.092;-1.382;2023-08-30T08:15:33;3.45;;;2.20;;
22060;SDS011;11194;48.092;-1.382;2023-08-30T08:18:00;8.20;;;2.60;;
22060;SDS011;11194;48.092;-1.382;2023-08-30T08:20:26;2.63;;;2.03;;
22060;SDS011;11194;48.092;-1.382;2023-08-30T08:22:52;6.53;;;2.58;;
22060;SDS011;11194;48.092;-1.382;2023-08-30T08:25:18;4.13;;;2.15;;
22060;SDS011;11194;48.092;-1.382;2023-08-30T08:27:46;5.88;;;2.47;;
22060;SDS011;11194;48.092;-1.382;2023-08-30T08:30:12;6.22;;;2.20;;
22060;SDS011;11194;48.092;-1.382;2023-08-30T08:32:38;5.10;;;2.13;;
22060;SDS011;11194;48.092;-1.382;2023-08-30T08:35:04;3.92;;;2.05;;
22060;SDS011;11194;48.092;-1.382;2023-08-30T08:37:31;3.45;;;1.88;;
22060;SDS011;11194;48.092;-1.382;2023-08-30T08:39:57;4.03;;;2.00;;
22060;SDS011;11194;48.092;-1.382;2023-08-30T08:42:23;4.50;;;2.13;;
22060;SDS011;11194;48.092;-1.382;2023-08-30T08:44:53;2.95;;;1.90;;
22060;SDS011;11194;48.092;-1.382;2023-08-30T08:47:20;4.18;;;2.05;;
22060;SDS011;11194;48.092;-1.382;2023-08-30T08:49:46;3.95;;;1.90;;
22060;SDS011;11194;48.092;-1.382;2023-08-30T08:52:15;4.05;;;2.13;;
22060;SDS011;11194;48.092;-1.382;2023-08-30T08:54:42;6.05;;;2.17;;
22060;SDS011;11194;48.092;-1.382;2023-08-30T08:57:09;4.95;;;2.10;;
22060;SDS011;11194;48.092;-1.382;2023-08-30T08:59:35;6.50;;;1.83;;
22060;SDS011;11194;48.092;-1.382;2023-08-30T09:02:01;5.57;;;2.38;;
22060;SDS011;11194;48.092;-1.382;2023-08-30T09:04:31;4.65;;;2.17;;
22060;SDS011;11194;48.092;-1.382;2023-08-30T09:07:00;4.63;;;2.30;;
22060;SDS011;11194;48.092;-1.382;2023-08-30T09:09:27;5.60;;;1.98;;
22060;SDS011;11194;48.092;-1.382;2023-08-30T09:11:53;4.93;;;2.00;;
22060;SDS011;11194;48.092;-1.382;2023-08-30T09:14:19;3.10;;;2.10;;
22060;SDS011;11194;48.092;-1.382;2023-08-30T09:16:55;5.53;;;2.13;;
22060;SDS011;11194;48.092;-1.382;2023-08-30T09:19:22;3.65;;;1.80;;
22060;SDS011;11194;48.092;-1.382;2023-08-30T09:21:54;4.88;;;2.05;;
22060;SDS011;11194;48.092;-1.382;2023-08-30T09:24:21;2.95;;;1.70;;
22060;SDS011;11194;48.092;-1.382;2023-08-30T09:26:47;2.92;;;1.88;;
22060;SDS011;11194;48.092;-1.382;2023-08-30T09:29:15;2.97;;;1.88;;
22060;SDS011;11194;48.092;-1.382;2023-08-30T09:31:42;3.80;;;2.00;;
22060;SDS011;11194;48.092;-1.382;2023-08-30T09:34:08;3.10;;;1.85;;
22060;SDS011;11194;48.092;-1.382;2023-08-30T09:36:36;3.95;;;1.98;;
22060;SDS011;11194;48.092;-1.382;2023-08-30T09:39:05;3.72;;;2.15;;
22060;SDS011;11194;48.092;-1.382;2023-08-30T09:41:32;3.88;;;2.15;;
22060;SDS011;11194;48.092;-1.382;2023-08-30T09:43:58;5.22;;;2.40;;
22060;SDS011;11194;48.092;-1.382;2023-08-30T09:46:25;5.07;;;1.95;;
22060;SDS011;11194;48.092;-1.382;2023-08-30T09:48:53;6.20;;;2.03;;
22060;SDS011;11194;48.092;-1.382;2023-08-30T09:51:19;3.63;;;1.98;;
22060;SDS011;11194;48.092;-1.382;2023-08-30T09:53:46;3.35;;;1.92;;
22060;SDS011;11194;48.092;-1.382;2023-08-30T09:56:14;6.95;;;2.22;;
22060;SDS011;11194;48.092;-1.382;2023-08-30T09:58:41;5.20;;;2.45;;
22060;SDS011;11194;48.092;-1.382;2023-08-30T10:01:08;3.83;;;2.60;;
22060;SDS011;11194;48.092;-1.382;2023-08-30T10:03:35;4.82;;;2.05;;
22060;SDS011;11194;48.092;-1.382;2023-08-30T10:06:01;3.90;;;2.00;;
22060;SDS011;11194;48.092;-1.382;2023-08-30T10:08:30;3.60;;;1.75;;
22060;SDS011;11194;48.092;-1.382;2023-08-30T10:10:57;5.00;;;2.10;;
22060;SDS011;11194;48.092;-1.382;2023-08-30T10:13:24;3.30;;;2.00;;
22060;SDS011;11194;48.092;-1.382;2023-08-30T10:15:51;4.53;;;2.03;;
22060;SDS011;11194;48.092;-1.382;2023-08-30T10:18:19;4.45;;;1.92;;
22060;SDS011;11194;48.092;-1.382;2023-08-30T10:20:46;5.15;;;1.95;;
22060;SDS011;11194;48.092;-1.382;2023-08-30T10:23:12;2.63;;;1.58;;
22060;SDS011;11194;48.092;-1.382;2023-08-30T10:25:39;7.25;;;5.32;;
22060;SDS011;11194;48.092;-1.382;2023-08-30T10:28:06;4.78;;;2.28;;
22060;SDS011;11194;48.092;-1.382;2023-08-30T10:30:33;4.53;;;1.83;;
22060;SDS011;11194;48.092;-1.382;2023-08-30T10:32:59;4.18;;;2.15;;
22060;SDS011;11194;48.092;-1.382;2023-08-30T10:35:25;4.07;;;2.28;;
22060;SDS011;11194;48.092;-1.382;2023-08-30T10:37:55;4.38;;;1.73;;
22060;SDS011;11194;48.092;-1.382;2023-08-30T10:40:21;4.38;;;1.70;;
22060;SDS011;11194;48.092;-1.382;2023-08-30T10:43:08;3.70;;;1.83;;
22060;SDS011;11194;48.092;-1.382;2023-08-30T10:45:33;4.15;;;1.98;;
22060;SDS011;11194;48.092;-1.382;2023-08-30T10:47:59;4.25;;;1.80;;
22060;SDS011;11194;48.092;-1.382;2023-08-30T10:50:29;4.75;;;2.25;;
22060;SDS011;11194;48.092;-1.382;2023-08-30T10:52:55;4.20;;;2.25;;
22060;SDS011;11194;48.092;-1.382;2023-08-30T10:55:22;3.85;;;2.03;;
22060;SDS011;11194;48.092;-1.382;2023-08-30T10:57:57;5.40;;;2.20;;
22060;SDS011;11194;48.092;-1.382;2023-08-30T11:00:23;2.67;;;1.50;;
22060;SDS011;11194;48.092;-1.382;2023-08-30T11:02:50;5.75;;;2.05;;
22060;SDS011;11194;48.092;-1.382;2023-08-30T11:05:17;3.33;;;1.92;;
22060;SDS011;11194;48.092;-1.382;2023-08-30T11:07:43;4.13;;;2.30;;
22060;SDS011;11194;48.092;-1.382;2023-08-30T11:10:10;5.22;;;1.95;;
22060;SDS011;11194;48.092;-1.382;2023-08-30T11:12:36;5.95;;;2.10;;
22060;SDS011;11194;48.092;-1.382;2023-08-30T11:15:02;5.15;;;2.05;;
22060;SDS011;11194;48.092;-1.382;2023-08-30T11:17:28;7.65;;;2.42;;
22060;SDS011;11194;48.092;-1.382;2023-08-30T11:19:58;7.22;;;2.28;;
22060;SDS011;11194;48.092;-1.382;2023-08-30T11:22:31;6.68;;;2.40;;
22060;SDS011;11194;48.092;-1.382;2023-08-30T11:24:57;3.00;;;1.90;;
22060;SDS011;11194;48.092;-1.382;2023-08-30T11:27:23;6.97;;;2.40;;
22060;SDS011;11194;48.092;-1.382;2023-08-30T11:29:49;7.43;;;2.13;;
22060;SDS011;11194;48.092;-1.382;2023-08-30T11:32:16;5.25;;;2.03;;
22060;SDS011;11194;48.092;-1.382;2023-08-30T11:34:42;7.90;;;1.90;;
22060;SDS011;11194;48.092;-1.382;2023-08-30T11:37:09;6.03;;;2.35;;
22060;SDS011;11194;48.092;-1.382;2023-08-30T11:39:35;4.15;;;1.80;;
22060;SDS011;11194;48.092;-1.382;2023-08-30T11:42:03;4.60;;;1.95;;
22060;SDS011;11194;48.092;-1.382;2023-08-30T11:44:30;3.45;;;2.03;;
22060;SDS011;11194;48.092;-1.382;2023-08-30T11:46:58;7.00;;;2.30;;
22060;SDS011;11194;48.092;-1.382;2023-08-30T11:49:25;4.68;;;2.30;;
22060;SDS011;11194;48.092;-1.382;2023-08-30T11:51:51;7.10;;;2.42;;
22060;SDS011;11194;48.092;-1.382;2023-08-30T11:54:18;6.63;;;2.70;;
22060;SDS011;11194;48.092;-1.382;2023-08-30T11:56:44;3.28;;;1.80;;
22060;SDS011;11194;48.092;-1.382;2023-08-30T11:59:20;5.32;;;2.00;;
22060;SDS011;11194;48.092;-1.382;2023-08-30T12:01:51;4.75;;;2.17;;
22060;SDS011;11194;48.092;-1.382;2023-08-30T12:04:18;7.65;;;2.63;;
22060;SDS011;11194;48.092;-1.382;2023-08-30T12:06:51;5.03;;;1.85;;
22060;SDS011;11194;48.092;-1.382;2023-08-30T12:09:18;5.03;;;2.03;;
22060;SDS011;11194;48.092;-1.382;2023-08-30T12:11:47;7.07;;;2.47;;
22060;SDS011;11194;48.092;-1.382;2023-08-30T12:14:15;7.55;;;2.58;;
22060;SDS011;11194;48.092;-1.382;2023-08-30T12:16:42;4.68;;;2.17;;
22060;SDS011;11194;48.092;-1.382;2023-08-30T12:19:11;8.93;;;2.70;;
22060;SDS011;11194;48.092;-1.382;2023-08-30T12:21:41;5.55;;;2.55;;
22060;SDS011;11194;48.092;-1.382;2023-08-30T12:24:08;4.32;;;2.20;;
22060;SDS011;11194;48.092;-1.382;2023-08-30T12:26:34;7.60;;;2.25;;
22060;SDS011;11194;48.092;-1.382;2023-08-30T12:29:03;5.00;;;2.30;;
22060;SDS011;11194;48.092;-1.382;2023-08-30T12:31:29;4.95;;;2.60;;
22060;SDS011;11194;48.092;-1.382;2023-08-30T12:33:56;4.85;;;2.40;;
22060;SDS011;11194;48.092;-1.382;2023-08-30T12:36:22;5.07;;;2.05;;
22060;SDS011;11194;48.092;-1.382;2023-08-30T12:38:48;5.80;;;2.78;;
22060;SDS011;11194;48.092;-1.382;2023-08-30T12:41:14;7.15;;;2.53;;
22060;SDS011;11194;48.092;-1.382;2023-08-30T12:43:41;5.90;;;2.35;;
22060;SDS011;11194;48.092;-1.382;2023-08-30T12:46:07;6.70;;;2.60;;
22060;SDS011;11194;48.092;-1.382;2023-08-30T12:48:33;7.63;;;2.30;;
22060;SDS011;11194;48.092;-1.382;2023-08-30T12:50:59;6.38;;;2.22;;
22060;SDS011;11194;48.092;-1.382;2023-08-30T12:53:25;6.20;;;2.08;;
22060;SDS011;11194;48.092;-1.382;2023-08-30T12:55:51;6.50;;;2.58;;
22060;SDS011;11194;48.092;-1.382;2023-08-30T12:58:17;6.47;;;2.40;;
22060;SDS011;11194;48.092;-1.382;2023-08-30T13:00:44;8.13;;;2.50;;
22060;SDS011;11194;48.092;-1.382;2023-08-30T13:03:10;5.53;;;2.22;;
22060;SDS011;11194;48.092;-1.382;2023-08-30T13:05:36;5.20;;;2.25;;
22060;SDS011;11194;48.092;-1.382;2023-08-30T13:08:02;6.70;;;2.58;;
22060;SDS011;11194;48.092;-1.382;2023-08-30T13:10:28;4.80;;;2.20;;
22060;SDS011;11194;48.092;-1.382;2023-08-30T13:12:54;5.88;;;2.20;;
22060;SDS011;11194;48.092;-1.382;2023-08-30T13:15:20;4.68;;;2.40;;
22060;SDS011;11194;48.092;-1.382;2023-08-30T13:17:46;5.70;;;2.30;;
22060;SDS011;11194;48.092;-1.382;2023-08-30T13:20:12;7.97;;;2.50;;
22060;SDS011;11194;48.092;-1.382;2023-08-30T13:22:38;7.63;;;2.58;;
22060;SDS011;11194;48.092;-1.382;2023-08-30T13:25:05;4.82;;;2.45;;
22060;SDS011;11194;48.092;-1.382;2023-08-30T13:27:33;7.20;;;2.70;;
22060;SDS011;11194;48.092;-1.382;2023-08-30T13:29:59;6.50;;;2.83;;
22060;SDS011;11194;48.092;-1.382;2023-08-30T13:32:26;8.70;;;2.60;;
22060;SDS011;11194;48.092;-1.382;2023-08-30T13:34:52;8.50;;;2.63;;
22060;SDS011;11194;48.092;-1.382;2023-08-30T13:37:18;7.15;;;2.45;;
22060;SDS011;11194;48.092;-1.382;2023-08-30T13:39:44;6.50;;;2.47;;
22060;SDS011;11194;48.092;-1.382;2023-08-30T13:42:11;9.00;;;2.92;;
22060;SDS011;11194;48.092;-1.382;2023-08-30T13:44:37;8.63;;;2.78;;
22060;SDS011;11194;48.092;-1.382;2023-08-30T13:47:06;7.18;;;2.83;;
22060;SDS011;11194;48.092;-1.382;2023-08-30T13:49:32;6.85;;;2.63;;
22060;SDS011;11194;48.092;-1.382;2023-08-30T13:51:58;6.82;;;2.88;;
22060;SDS011;11194;48.092;-1.382;2023-08-30T13:54:24;7.63;;;2.40;;
22060;SDS011;11194;48.092;-1.382;2023-08-30T13:56:51;5.47;;;2.70;;
22060;SDS011;11194;48.092;-1.382;2023-08-30T13:59:17;11.02;;;2.80;;
22060;SDS011;11194;48.092;-1.382;2023-08-30T14:01:43;7.10;;;2.65;;
22060;SDS011;11194;48.092;-1.382;2023-08-30T14:04:09;8.40;;;3.28;;
22060;SDS011;11194;48.092;-1.382;2023-08-30T14:06:35;8.65;;;3.03;;
22060;SDS011;11194;48.092;-1.382;2023-08-30T14:09:01;5.55;;;2.55;;
22060;SDS011;11194;48.092;-1.382;2023-08-30T14:11:30;8.63;;;2.55;;
22060;SDS011;11194;48.092;-1.382;2023-08-30T14:13:56;6.68;;;2.95;;
22060;SDS011;11194;48.092;-1.382;2023-08-30T14:16:22;8.27;;;2.67;;
22060;SDS011;11194;48.092;-1.382;2023-08-30T14:18:49;7.97;;;2.92;;
22060;SDS011;11194;48.092;-1.382;2023-08-30T14:21:15;9.20;;;2.65;;
22060;SDS011;11194;48.092;-1.382;2023-08-30T14:23:41;6.18;;;2.53;;
22060;SDS011;11194;48.092;-1.382;2023-08-30T14:26:07;9.07;;;3.20;;
22060;SDS011;11194;48.092;-1.382;2023-08-30T14:28:34;8.57;;;2.92;;
22060;SDS011;11194;48.092;-1.382;2023-08-30T14:31:01;4.95;;;2.60;;
22060;SDS011;11194;48.092;-1.382;2023-08-30T14:33:27;6.20;;;2.85;;
22060;SDS011;11194;48.092;-1.382;2023-08-30T14:35:53;4.15;;;2.20;;